createdAt,value
2024-01-18T00:00:36.268Z,95203.84
2024-01-18T00:03:03.842Z,95216.19
2024-01-18T00:05:31.085Z,95224.81
2024-01-18T00:07:58.183Z,95219.19
2024-01-18T00:10:28.719Z,95223.88
2024-01-18T00:12:56.167Z,95223.16
2024-01-18T00:15:23.720Z,95222.22
2024-01-18T00:17:51.226Z,95226.69
2024-01-18T00:20:18.569Z,95239.44
2024-01-18T00:22:45.659Z,95230.66
2024-01-18T00:25:20.715Z,95232.59
2024-01-18T00:27:47.816Z,95241.19
2024-01-18T00:30:16.696Z,95241.72
2024-01-18T00:32:43.925Z,95246.91
2024-01-18T00:35:11.432Z,95249.41
2024-01-18T00:37:38.656Z,95265.88
2024-01-18T00:40:08.023Z,95261.00
2024-01-18T00:42:35.286Z,95260.81
2024-01-18T00:45:02.523Z,95279.44
2024-01-18T00:47:29.903Z,95279.97
2024-01-18T00:49:57.130Z,95272.41
2024-01-18T00:52:24.203Z,95287.84
2024-01-18T00:54:51.450Z,95288.38
2024-01-18T00:57:18.558Z,95299.13
2024-01-18T00:59:45.795Z,95307.19
2024-01-18T01:02:12.901Z,95315.28
2024-01-18T01:04:40.101Z,95320.66
2024-01-18T01:07:07.206Z,95320.66
2024-01-18T01:09:34.425Z,95327.28
2024-01-18T01:12:01.710Z,95330.50
2024-01-18T01:14:28.933Z,95337.81
2024-01-18T01:16:56.125Z,95344.25
2024-01-18T01:19:23.310Z,95353.16
2024-01-18T01:21:50.407Z,95354.19
2024-01-18T01:24:17.602Z,95354.19
2024-01-18T01:26:44.705Z,95364.25
2024-01-18T01:29:12.644Z,95361.16
2024-01-18T01:31:39.890Z,95366.81
2024-01-18T01:34:07.097Z,95373.44
2024-01-18T01:36:34.393Z,95390.63
2024-01-18T01:39:01.946Z,95383.78
2024-01-18T01:41:29.228Z,95390.41
2024-01-18T01:44:00.045Z,95394.34
2024-01-18T01:46:27.852Z,95402.22
2024-01-18T01:49:03.453Z,95404.91
2024-01-18T01:51:34.154Z,95408.84
2024-01-18T01:54:03.775Z,95414.94
2024-01-18T01:56:32.003Z,95414.00
2024-01-18T01:58:59.135Z,95415.75
2024-01-18T02:01:26.387Z,95408.19
2024-01-18T02:03:53.800Z,95414.63
2024-01-18T02:06:21.049Z,95413.38
2024-01-18T02:08:48.246Z,95414.81
2024-01-18T02:11:15.884Z,95416.78
2024-01-18T02:13:43.484Z,95435.59
2024-01-18T02:16:10.884Z,95438.31
2024-01-18T02:18:38.160Z,95430.03
2024-01-18T02:21:08.870Z,95440.25
2024-01-18T02:23:37.788Z,95441.50
2024-01-18T02:26:05.112Z,95441.50
2024-01-18T02:28:32.241Z,95441.50
2024-01-18T02:30:59.389Z,95441.28
2024-01-18T02:33:26.587Z,95453.50
2024-01-18T02:35:53.901Z,95455.47
2024-01-18T02:38:21.265Z,95455.47
2024-01-18T02:40:48.642Z,95469.22
2024-01-18T02:43:15.757Z,95467.31
2024-01-18T02:45:43.001Z,95476.44
2024-01-18T02:48:10.321Z,95477.66
2024-01-18T02:50:41.538Z,95478.91
2024-01-18T02:53:08.691Z,95484.81
2024-01-18T02:55:35.837Z,95467.72
2024-01-18T02:58:06.266Z,95468.94
2024-01-18T03:00:33.612Z,95470.00
2024-01-18T03:03:00.904Z,95472.22
2024-01-18T03:05:28.046Z,95489.19
2024-01-18T03:07:55.671Z,95481.19
2024-01-18T03:10:23.226Z,95481.72
2024-01-18T03:12:50.371Z,95485.19
2024-01-18T03:15:17.648Z,95493.78
2024-01-18T03:17:44.842Z,95504.53
2024-01-18T03:20:12.025Z,95511.88
2024-01-18T03:22:40.306Z,95513.31
2024-01-18T03:25:07.950Z,95520.13
2024-01-18T03:27:37.560Z,95508.88
2024-01-18T03:30:05.280Z,95524.06
2024-01-18T03:32:32.464Z,95522.59
2024-01-18T03:35:00.049Z,95522.91
2024-01-18T03:37:27.371Z,95512.59
2024-01-18T03:39:54.479Z,95517.44
2024-01-18T03:42:21.639Z,95508.16
2024-01-18T03:44:48.892Z,95509.38
2024-01-18T03:47:16.162Z,95513.53
2024-01-18T03:49:44.647Z,95523.84
2024-01-18T03:52:13.239Z,95529.06
2024-01-18T03:54:40.908Z,95527.41
2024-01-18T03:57:08.078Z,95533.28
2024-01-18T03:59:35.509Z,95544.25
2024-01-18T04:02:02.623Z,95542.16
2024-01-18T04:04:29.897Z,95551.44
2024-01-18T04:06:57.170Z,95557.59
2024-01-18T04:09:24.422Z,95558.84
2024-01-18T04:11:51.603Z,95565.50
2024-01-18T04:14:19.026Z,95566.75
2024-01-18T04:16:46.146Z,95567.25
2024-01-18T04:19:13.420Z,95566.78
2024-01-18T04:21:40.662Z,95563.59
2024-01-18T04:24:07.886Z,95564.13
2024-01-18T04:26:35.602Z,95555.84
2024-01-18T04:29:03.503Z,95562.66
2024-01-18T04:31:30.612Z,95563.69
2024-01-18T04:33:57.827Z,95557.84
2024-01-18T04:36:25.056Z,95564.75
2024-01-18T04:38:52.826Z,95581.34
2024-01-18T04:41:20.037Z,95586.72
2024-01-18T04:43:47.160Z,95587.47
2024-01-18T04:46:14.309Z,95608.97
2024-01-18T04:48:41.873Z,95608.19
2024-01-18T04:51:09.056Z,95602.09
2024-01-18T04:53:36.234Z,95594.28
2024-01-18T04:56:03.503Z,95600.41
2024-01-18T04:58:30.650Z,95597.19
2024-01-18T05:00:57.958Z,95598.13
2024-01-18T05:03:26.395Z,95604.75
2024-01-18T05:05:54.008Z,95619.41
2024-01-18T05:08:21.780Z,95624.06
2024-01-18T05:10:49.064Z,95623.31
2024-01-18T05:13:16.298Z,95637.69
2024-01-18T05:15:43.439Z,95633.78
2024-01-18T05:18:10.692Z,95622.81
2024-01-18T05:20:46.372Z,95622.31
2024-01-18T05:23:13.484Z,95615.50
2024-01-18T05:25:40.573Z,95633.34
2024-01-18T05:28:07.868Z,95630.91
2024-01-18T05:30:35.104Z,95632.88
2024-01-18T05:33:02.444Z,95638.75
2024-01-18T05:35:48.146Z,95633.38
2024-01-18T05:38:27.624Z,95638.31
2024-01-18T05:40:54.886Z,95620.50
2024-01-18T05:43:22.122Z,95631.75
2024-01-18T05:45:49.432Z,95642.78
2024-01-18T05:48:16.657Z,95651.06
2024-01-18T05:50:43.884Z,95651.28
2024-01-18T05:53:10.998Z,95651.28
2024-01-18T05:55:38.348Z,95648.59
2024-01-18T05:58:05.477Z,95649.84
2024-01-18T06:00:32.958Z,95654.47
2024-01-18T06:03:00.182Z,95657.88
2024-01-18T06:05:27.914Z,95656.44
2024-01-18T06:07:55.057Z,95648.38
2024-01-18T06:10:22.682Z,95645.91
2024-01-18T06:12:49.797Z,95647.38
2024-01-18T06:15:19.615Z,95652.72
2024-01-18T06:17:46.773Z,95665.22
2024-01-18T06:20:16.218Z,95662.03
2024-01-18T06:22:43.695Z,95680.09
2024-01-18T06:25:10.921Z,95675.22
2024-01-18T06:27:38.026Z,95666.44
2024-01-18T06:30:11.737Z,95666.44
2024-01-18T06:32:39.191Z,95666.94
2024-01-18T06:35:06.657Z,95677.44
2024-01-18T06:37:34.256Z,95692.81
2024-01-18T06:40:01.428Z,95692.31
2024-01-18T06:42:28.655Z,95678.66
2024-01-18T06:44:55.766Z,95687.75
2024-01-18T06:47:22.926Z,95680.91
2024-01-18T06:49:50.255Z,95686.03
2024-01-18T06:52:17.786Z,95673.38
2024-01-18T06:54:45.251Z,95679.47
2024-01-18T06:57:12.562Z,95686.50
2024-01-18T06:59:49.190Z,95700.16
2024-01-18T07:02:16.373Z,95694.06
2024-01-18T07:04:44.970Z,95694.78
2024-01-18T07:07:12.181Z,95705.53
2024-01-18T07:09:39.361Z,95694.06
2024-01-18T07:12:07.158Z,95696.75
2024-01-18T07:14:34.991Z,95714.81
2024-01-18T07:17:02.866Z,95703.06
2024-01-18T07:19:30.272Z,95703.06
2024-01-18T07:21:57.513Z,95715.03
2024-01-18T07:24:27.715Z,95724.53
2024-01-18T07:26:54.824Z,95710.38
2024-01-18T07:29:21.951Z,95702.84
2024-01-18T07:31:49.031Z,95693.59
2024-01-18T07:34:17.620Z,95700.97
2024-01-18T07:36:44.986Z,95688.06
2024-01-18T07:39:12.244Z,95674.38
2024-01-18T07:41:39.374Z,95704.41
2024-01-18T07:44:06.584Z,95715.66
2024-01-18T07:46:33.884Z,95723.19
2024-01-18T07:49:02.792Z,95703.97
2024-01-18T07:51:30.889Z,95686.13
2024-01-18T07:53:58.264Z,95679.53
2024-01-18T07:56:25.389Z,95682.94
2024-01-18T07:58:52.606Z,95696.88
2024-01-18T08:01:20.205Z,95703.69
2024-01-18T08:03:47.519Z,95694.66
2024-01-18T08:06:14.890Z,95685.13
2024-01-18T08:08:42.079Z,95710.75
2024-01-18T08:11:13.995Z,95714.16
2024-01-18T08:13:41.902Z,95720.25
2024-01-18T08:16:09.939Z,95745.88
2024-01-18T08:18:37.845Z,95763.22
2024-01-18T08:21:07.464Z,95755.88
2024-01-18T08:23:36.989Z,95757.34
2024-01-18T08:26:04.174Z,95764.44
2024-01-18T08:28:31.265Z,95755.91
2024-01-18T08:30:59.213Z,95754.97
2024-01-18T08:33:26.412Z,95760.56
2024-01-18T08:35:53.507Z,95753.97
2024-01-18T08:38:22.255Z,95763.50
2024-01-18T08:40:49.541Z,95764.72
2024-01-18T08:43:16.800Z,95766.66
2024-01-18T08:45:44.128Z,95775.94
2024-01-18T08:48:11.757Z,95769.84
2024-01-18T08:50:39.324Z,95761.81
2024-01-18T08:53:08.055Z,95766.94
2024-01-18T08:55:39.385Z,95778.19
2024-01-18T08:58:07.933Z,95775.28
2024-01-18T09:00:35.674Z,95777.19
2024-01-18T09:03:02.884Z,95779.88
2024-01-18T09:05:30.855Z,95784.06
2024-01-18T09:07:59.483Z,95785.50
2024-01-18T09:10:27.652Z,95796.25
2024-01-18T09:12:54.898Z,95792.09
2024-01-18T09:15:23.324Z,95806.97
2024-01-18T09:17:50.459Z,95797.19
2024-01-18T09:20:17.757Z,95811.56
2024-01-18T09:22:44.956Z,95814.50
2024-01-18T09:25:12.170Z,95825.25
2024-01-18T09:27:39.393Z,95830.84
2024-01-18T09:30:09.916Z,95828.16
2024-01-18T09:32:37.138Z,95841.81
2024-01-18T09:35:06.919Z,95843.25
2024-01-18T09:37:34.070Z,95843.47
2024-01-18T09:40:01.292Z,95846.91
2024-01-18T09:42:32.486Z,95848.13
2024-01-18T09:45:10.381Z,95856.66
2024-01-18T09:47:37.713Z,95845.72
2024-01-18T09:50:05.712Z,95844.78
2024-01-18T09:52:34.493Z,95850.16
2024-01-18T09:55:01.770Z,95858.00
2024-01-18T09:57:33.883Z,95855.06
2024-01-18T10:00:05.494Z,95843.13
2024-01-18T10:02:33.686Z,95850.94
2024-01-18T10:05:01.836Z,95861.91
2024-01-18T10:07:29.157Z,95867.97
2024-01-18T10:09:57.486Z,95868.69
2024-01-18T10:12:31.099Z,95875.97
2024-01-18T10:14:58.387Z,95874.28
2024-01-18T10:17:27.156Z,95868.63
2024-01-18T10:19:57.978Z,95874.00
2024-01-18T10:22:26.158Z,95864.28
2024-01-18T10:24:53.565Z,95873.28
2024-01-18T10:27:20.998Z,95878.19
2024-01-18T10:29:48.189Z,95876.50
2024-01-18T10:32:17.858Z,95880.41
2024-01-18T10:34:45.136Z,95884.31
2024-01-18T10:37:16.735Z,95876.50
2024-01-18T10:39:44.953Z,95873.06
2024-01-18T10:42:13.469Z,95872.81
2024-01-18T10:44:48.508Z,95885.75
2024-01-18T10:47:16.203Z,95889.88
2024-01-18T10:49:46.329Z,95884.28
2024-01-18T10:52:13.594Z,95885.75
2024-01-18T10:54:46.996Z,95884.06
2024-01-18T10:57:22.810Z,95875.75
2024-01-18T10:59:50.638Z,95883.56
2024-01-18T11:02:18.081Z,95871.63
2024-01-18T11:04:45.709Z,95872.59
2024-01-18T11:07:14.356Z,95875.03
2024-01-18T11:09:41.712Z,95881.63
2024-01-18T11:12:09.266Z,95882.81
2024-01-18T11:14:37.228Z,95885.00
2024-01-18T11:17:17.385Z,95892.28
2024-01-18T11:19:48.410Z,95880.59
2024-01-18T11:22:26.289Z,95884.94
2024-01-18T11:25:07.117Z,95882.28
2024-01-18T11:27:41.698Z,95894.47
2024-01-18T11:30:11.921Z,95899.88
2024-01-18T11:32:39.841Z,95899.91
2024-01-18T11:35:11.445Z,95896.25
2024-01-18T11:37:39.598Z,95898.44
2024-01-18T11:40:11.143Z,95903.31
2024-01-18T11:42:42.200Z,95897.22
2024-01-18T11:45:12.204Z,95888.91
2024-01-18T11:47:40.176Z,95892.06
2024-01-18T11:50:10.287Z,95899.16
2024-01-18T11:52:44.897Z,95903.09
2024-01-18T11:55:13.013Z,95905.75
2024-01-18T11:57:40.196Z,95923.09
2024-01-18T12:00:07.960Z,95924.06
2024-01-18T12:02:35.163Z,95926.28
2024-01-18T12:05:04.767Z,95931.16
2024-01-18T12:07:33.783Z,95927.00
2024-01-18T12:10:02.231Z,95927.97
2024-01-18T12:12:29.688Z,95941.16
2024-01-18T12:15:02.552Z,95929.69
2024-01-18T12:17:29.856Z,95934.56
2024-01-18T12:19:57.050Z,95935.56
2024-01-18T12:22:27.502Z,95946.06
2024-01-18T12:24:55.173Z,95954.34
2024-01-18T12:27:22.437Z,95955.56
2024-01-18T12:29:49.656Z,95960.44
2024-01-18T12:32:18.023Z,95958.50
2024-01-18T12:34:45.913Z,95960.69
2024-01-18T12:37:13.767Z,95969.47
2024-01-18T12:39:41.044Z,95967.75
2024-01-18T12:42:08.456Z,95966.53
2024-01-18T12:44:35.694Z,95971.66
2024-01-18T12:47:05.669Z,95968.00
2024-01-18T12:49:34.768Z,95971.16
2024-01-18T12:52:03.807Z,95971.16
2024-01-18T12:54:32.969Z,95982.41
2024-01-18T12:57:01.581Z,95980.44
2024-01-18T12:59:31.385Z,95989.25
2024-01-18T13:01:59.287Z,95987.28
2024-01-18T13:04:34.625Z,95986.06
2024-01-18T13:07:04.127Z,96000.94
2024-01-18T13:09:34.466Z,96018.50
2024-01-18T13:12:07.010Z,96023.84
2024-01-18T13:14:35.282Z,96026.53
2024-01-18T13:17:02.523Z,96026.06
2024-01-18T13:19:30.472Z,96023.13
2024-01-18T13:21:58.079Z,96029.00
2024-01-18T13:24:25.485Z,96027.78
2024-01-18T13:26:52.989Z,96039.00
2024-01-18T13:29:20.199Z,96045.34
2024-01-18T13:31:48.794Z,96052.16
2024-01-18T13:34:18.311Z,96068.00
2024-01-18T13:36:46.039Z,96077.78
2024-01-18T13:39:13.481Z,96075.59
2024-01-18T13:41:40.752Z,96072.91
2024-01-18T13:44:09.126Z,96091.91
2024-01-18T13:46:39.550Z,96099.72
2024-01-18T13:49:06.793Z,96079.97
2024-01-18T13:51:34.352Z,96084.09
2024-01-18T13:54:01.916Z,96082.16
2024-01-18T13:56:29.512Z,96092.41
2024-01-18T13:58:56.792Z,96101.41
2024-01-18T14:01:24.278Z,96114.38
2024-01-18T14:03:54.114Z,96127.78
2024-01-18T14:06:23.827Z,96118.03
2024-01-18T14:08:51.547Z,96117.28
2024-01-18T14:11:18.787Z,96130.22
2024-01-18T14:13:45.939Z,96140.72
2024-01-18T14:16:13.583Z,96142.66
2024-01-18T14:18:42.071Z,96153.16
2024-01-18T14:21:09.743Z,96152.88
2024-01-18T14:23:37.109Z,96165.34
2024-01-18T14:26:05.509Z,96183.63
2024-01-18T14:28:33.442Z,96193.88
2024-01-18T14:31:01.749Z,96207.31
2024-01-18T14:33:29.318Z,96202.66
2024-01-18T14:35:56.674Z,96205.84
2024-01-18T14:38:23.837Z,96203.41
2024-01-18T14:40:51.058Z,96224.13
2024-01-18T14:43:20.815Z,96213.41
2024-01-18T14:45:49.907Z,96228.78
2024-01-18T14:48:18.225Z,96242.91
2024-01-18T14:50:46.286Z,96246.34
2024-01-18T14:53:17.510Z,96252.69
2024-01-18T14:55:44.946Z,96265.59
2024-01-18T14:58:12.581Z,96269.97
2024-01-18T15:00:41.525Z,96266.09
2024-01-18T15:03:09.266Z,96265.09
2024-01-18T15:05:38.383Z,96265.81
2024-01-18T15:08:07.405Z,96275.59
2024-01-18T15:10:34.965Z,96296.81
2024-01-18T15:13:02.310Z,96301.44
2024-01-18T15:15:30.583Z,96303.16
2024-01-18T15:17:58.379Z,96314.59
2024-01-18T15:20:25.849Z,96321.19
2024-01-18T15:22:53.205Z,96311.19
2024-01-18T15:25:20.434Z,96313.88
2024-01-18T15:27:47.706Z,96326.06
2024-01-18T15:30:15.286Z,96328.03
2024-01-18T15:32:42.524Z,96334.38
2024-01-18T15:35:11.132Z,96347.78
2024-01-18T15:37:38.559Z,96356.03
2024-01-18T15:40:10.558Z,96368.00
2024-01-18T15:42:37.945Z,96366.03
2024-01-18T15:45:05.860Z,96373.34
2024-01-18T15:47:40.427Z,96377.00
2024-01-18T15:50:08.607Z,96381.41
2024-01-18T15:52:36.483Z,96390.47
2024-01-18T15:55:05.033Z,96400.72
2024-01-18T15:57:32.583Z,96399.25
2024-01-18T15:59:59.999Z,96403.41
2024-01-18T16:02:27.152Z,96410.97
2024-01-18T16:04:55.817Z,96421.47
2024-01-18T16:07:23.861Z,96429.78
2024-01-18T16:09:55.212Z,96432.47
2024-01-18T16:12:22.408Z,96445.59
2024-01-18T16:14:49.554Z,96453.66
2024-01-18T16:17:16.712Z,96457.34
2024-01-18T16:19:43.868Z,96463.44
2024-01-18T16:22:11.094Z,96471.00
2024-01-18T16:24:38.387Z,96468.81
2024-01-18T16:27:05.704Z,96462.91
2024-01-18T16:29:41.516Z,96471.22
2024-01-18T16:32:19.620Z,96483.66
2024-01-18T16:34:46.772Z,96478.28
2024-01-18T16:37:13.894Z,96495.84
2024-01-18T16:39:42.058Z,96495.13
2024-01-18T16:42:09.196Z,96504.66
2024-01-18T16:44:36.316Z,96519.53
2024-01-18T16:47:03.966Z,96520.06
2024-01-18T16:49:31.135Z,96523.72
2024-01-18T16:51:58.375Z,96531.28
2024-01-18T16:54:26.044Z,96534.25
2024-01-18T16:56:53.170Z,96546.72
2024-01-18T16:59:20.320Z,96546.50
2024-01-18T17:01:47.430Z,96554.06
2024-01-18T17:04:15.810Z,96566.53
2024-01-18T17:06:45.111Z,96568.72
2024-01-18T17:09:12.340Z,96574.84
2024-01-18T17:11:39.531Z,96568.25
2024-01-18T17:14:06.741Z,96576.31
2024-01-18T17:16:34.112Z,96568.25
2024-01-18T17:19:01.709Z,96578.47
2024-01-18T17:21:28.868Z,96590.69
2024-01-18T17:23:56.010Z,96598.00
2024-01-18T17:26:23.402Z,96598.75
2024-01-18T17:28:50.532Z,96610.94
2024-01-18T17:31:17.792Z,96619.75
2024-01-18T17:33:45.108Z,96621.69
2024-01-18T17:36:12.383Z,96627.06
2024-01-18T17:38:39.991Z,96632.69
2024-01-18T17:41:07.264Z,96637.31
2024-01-18T17:43:34.420Z,96638.03
2024-01-18T17:46:04.101Z,96651.47
2024-01-18T17:48:33.987Z,96646.59
2024-01-18T17:51:02.804Z,96656.06
2024-01-18T17:53:30.046Z,96672.19
2024-01-18T17:55:59.882Z,96674.88
2024-01-18T17:58:28.079Z,96688.78
2024-01-18T18:00:55.151Z,96687.03
2024-01-18T18:03:22.280Z,96705.06
2024-01-18T18:05:49.693Z,96717.50
2024-01-18T18:08:16.933Z,96724.53
2024-01-18T18:10:45.088Z,96727.22
2024-01-18T18:13:12.204Z,96743.78
2024-01-18T18:15:45.047Z,96756.75
2024-01-18T18:18:17.861Z,96767.47
2024-01-18T18:20:45.131Z,96755.28
2024-01-18T18:23:12.346Z,96763.88
2024-01-18T18:25:39.515Z,96763.13
2024-01-18T18:28:06.695Z,96767.28
2024-01-18T18:30:36.847Z,96777.03
2024-01-18T18:33:06.601Z,96778.22
2024-01-18T18:35:34.016Z,96787.47
2024-01-18T18:38:01.331Z,96800.91
2024-01-18T18:40:30.481Z,96803.78
2024-01-18T18:42:57.637Z,96803.97
2024-01-18T18:45:24.740Z,96811.03
2024-01-18T18:47:54.374Z,96819.81
2024-01-18T18:50:21.627Z,96820.03
2024-01-18T18:52:49.972Z,96829.31
2024-01-18T18:55:20.069Z,96832.44
2024-01-18T18:57:49.436Z,96836.63
2024-01-18T19:00:16.913Z,96852.25
2024-01-18T19:02:44.293Z,96861.50
2024-01-18T19:05:11.981Z,96875.66
2024-01-18T19:07:39.187Z,96872.25
2024-01-18T19:10:06.959Z,96873.44
2024-01-18T19:12:34.439Z,96887.88
2024-01-18T19:15:01.539Z,96898.34
2024-01-18T19:17:28.771Z,96895.66
2024-01-18T19:19:55.994Z,96905.19
2024-01-18T19:22:23.126Z,96907.84
2024-01-18T19:24:50.344Z,96908.59
2024-01-18T19:27:18.775Z,96914.69
2024-01-18T19:29:46.321Z,96920.53
2024-01-18T19:32:13.695Z,96927.84
2024-01-18T19:34:40.934Z,96932.47
2024-01-18T19:37:08.067Z,96937.38
2024-01-18T19:39:40.509Z,96935.44
2024-01-18T19:42:08.068Z,96939.84
2024-01-18T19:44:35.439Z,96952.78
2024-01-18T19:47:03.443Z,96955.47
2024-01-18T19:49:30.608Z,96966.94
2024-01-18T19:51:58.849Z,96962.31
2024-01-18T19:54:26.031Z,96967.97
2024-01-18T19:56:53.516Z,96975.75
2024-01-18T19:59:20.774Z,96980.38
2024-01-18T20:01:48.745Z,96976.50
2024-01-18T20:04:16.001Z,96988.44
2024-01-18T20:06:43.358Z,96992.78
2024-01-18T20:09:10.935Z,96988.63
2024-01-18T20:11:39.173Z,97003.72
2024-01-18T20:14:06.439Z,97004.47
2024-01-18T20:16:33.739Z,97009.09
2024-01-18T20:19:00.954Z,97009.09
2024-01-18T20:21:28.140Z,97011.31
2024-01-18T20:23:55.637Z,97020.09
2024-01-18T20:26:22.935Z,97020.09
2024-01-18T20:28:51.405Z,97024.72
2024-01-18T20:31:19.050Z,97034.25
2024-01-18T20:33:46.982Z,97032.78
2024-01-18T20:36:15.149Z,97034.25
2024-01-18T20:38:43.231Z,97040.34
2024-01-18T20:41:11.439Z,97045.44
2024-01-18T20:43:38.687Z,97051.28
2024-01-18T20:46:05.809Z,97063.50
2024-01-18T20:48:32.996Z,97062.94
2024-01-18T20:51:00.305Z,97071.66
2024-01-18T20:53:28.160Z,97084.50
2024-01-18T20:55:55.318Z,97090.34
2024-01-18T20:58:22.800Z,97086.16
2024-01-18T21:00:50.032Z,97096.44
2024-01-18T21:03:17.208Z,97099.38
2024-01-18T21:05:44.476Z,97098.47
2024-01-18T21:08:11.699Z,97104.59
2024-01-18T21:10:38.835Z,97113.19
2024-01-18T21:13:06.009Z,97124.19
2024-01-18T21:15:33.230Z,97129.84
2024-01-18T21:18:00.426Z,97132.34
2024-01-18T21:20:27.676Z,97133.53
2024-01-18T21:22:54.947Z,97141.59
2024-01-18T21:25:22.199Z,97154.81
2024-01-18T21:27:49.440Z,97155.84
2024-01-18T21:30:16.658Z,97165.13
2024-01-18T21:32:44.203Z,97169.56
2024-01-18T21:35:11.405Z,97170.28
2024-01-18T21:37:38.649Z,97173.97
2024-01-18T21:40:06.363Z,97178.44
2024-01-18T21:42:33.653Z,97176.97
2024-01-18T21:45:00.972Z,97179.94
2024-01-18T21:47:28.215Z,97185.28
2024-01-18T21:49:55.456Z,97192.88
2024-01-18T21:52:22.849Z,97199.00
2024-01-18T21:54:51.454Z,97202.41
2024-01-18T21:57:19.062Z,97206.78
2024-01-18T21:59:46.310Z,97225.09
2024-01-18T22:02:13.848Z,97230.28
2024-01-18T22:04:41.405Z,97234.91
2024-01-18T22:07:09.466Z,97234.16
2024-01-18T22:09:41.971Z,97240.56
2024-01-18T22:12:11.804Z,97247.88
2024-01-18T22:14:39.603Z,97252.50
2024-01-18T22:17:07.124Z,97251.75
2024-01-18T22:19:43.565Z,97256.09
2024-01-18T22:22:19.121Z,97270.25
2024-01-18T22:24:46.594Z,97271.00
2024-01-18T22:27:13.721Z,97272.50
2024-01-18T22:29:43.326Z,97272.03
2024-01-18T22:32:16.235Z,97285.47
2024-01-18T22:34:43.462Z,97283.22
2024-01-18T22:37:10.542Z,97290.25
2024-01-18T22:39:37.663Z,97300.84
2024-01-18T22:42:04.815Z,97304.25
2024-01-18T22:44:32.102Z,97303.53
2024-01-18T22:46:59.237Z,97310.81
2024-01-18T22:49:26.975Z,97311.56
2024-01-18T22:51:54.261Z,97318.88
2024-01-18T22:54:21.412Z,97325.16
2024-01-18T22:56:48.644Z,97322.94
2024-01-18T22:59:15.740Z,97319.69
2024-01-18T23:01:43.625Z,97332.66
2024-01-18T23:04:14.904Z,97336.09
2024-01-18T23:06:42.948Z,97332.66
2024-01-18T23:09:11.649Z,97346.53
2024-01-18T23:11:38.892Z,97346.53
2024-01-18T23:14:06.002Z,97341.34
2024-01-18T23:16:33.254Z,97345.22
2024-01-18T23:19:00.379Z,97346.72
2024-01-18T23:21:27.539Z,97342.81
2024-01-18T23:23:54.737Z,97335.50
2024-01-18T23:26:21.907Z,97341.63
2024-01-18T23:28:49.220Z,97341.63
2024-01-18T23:31:16.543Z,97333.56
2024-01-18T23:33:43.753Z,97344.56
2024-01-18T23:36:11.938Z,97351.00
2024-01-18T23:38:39.567Z,97351.72
2024-01-18T23:41:06.781Z,97354.69
2024-01-18T23:43:33.876Z,97362.47
2024-01-18T23:46:02.178Z,97361.16
2024-01-18T23:48:29.299Z,97369.66
2024-01-18T23:50:56.403Z,97375.66
2024-01-18T23:53:23.588Z,97372.41
2024-01-18T23:55:50.710Z,97372.41
2024-01-18T23:58:17.800Z,97380.91
